createdAt,value
2022-09-10T00:02:16.582Z,20.70
2022-09-10T00:04:44.376Z,20.70
2022-09-10T00:07:11.789Z,20.80
2022-09-10T00:09:43.134Z,20.70
2022-09-10T00:12:11.489Z,20.70
2022-09-10T00:14:38.654Z,20.70
2022-09-10T00:17:10.330Z,20.70
2022-09-10T00:19:39.996Z,20.70
2022-09-10T00:22:10.534Z,20.60
2022-09-10T00:24:38.891Z,20.60
2022-09-10T00:27:06.257Z,20.60
2022-09-10T00:29:34.153Z,20.60
2022-09-10T00:32:03.628Z,20.60
2022-09-10T00:34:30.636Z,20.50
2022-09-10T00:36:58.446Z,20.50
2022-09-10T00:39:25.747Z,20.60
2022-09-10T00:41:55.122Z,20.50
2022-09-10T00:44:40.394Z,20.50
2022-09-10T00:47:10.880Z,20.50
2022-09-10T00:49:46.001Z,20.50
2022-09-10T00:52:24.761Z,20.50
2022-09-10T01:08:31.853Z,20.40
2022-09-10T01:24:31.077Z,20.30
2022-09-10T03:19:53.450Z,19.50
2022-09-10T03:22:30.956Z,19.40
2022-09-10T03:28:05.608Z,19.30
2022-09-10T03:30:36.670Z,19.30
2022-09-10T03:33:07.353Z,19.30
2022-09-10T03:35:37.031Z,19.20
2022-09-10T03:38:04.291Z,19.20
2022-09-10T03:40:31.312Z,19.10
2022-09-10T03:42:59.072Z,19.00
2022-09-10T03:45:26.456Z,18.90
2022-09-10T03:47:53.892Z,18.70
2022-09-10T03:50:23.665Z,18.70
2022-09-10T03:52:51.588Z,18.60
2022-09-10T03:55:20.695Z,18.70
2022-09-10T03:57:48.222Z,18.50
2022-09-10T04:00:18.118Z,18.40
2022-09-10T04:02:49.164Z,18.40
2022-09-10T04:05:16.739Z,18.30
2022-09-10T04:07:44.076Z,18.30
2022-09-10T04:10:13.581Z,18.40
2022-09-10T04:12:44.438Z,18.30
2022-09-10T04:15:13.757Z,18.20
2022-09-10T04:17:42.083Z,18.20
2022-09-10T04:20:10.355Z,18.20
2022-09-10T04:22:40.019Z,18.20
2022-09-10T04:25:08.313Z,18.10
2022-09-10T04:27:36.156Z,18.20
2022-09-10T04:30:03.580Z,18.20
2022-09-10T04:32:30.886Z,18.20
2022-09-10T04:34:59.519Z,18.10
2022-09-10T04:37:28.090Z,18.10
2022-09-10T04:39:55.431Z,18.00
2022-09-10T04:42:23.971Z,18.00
2022-09-10T04:44:53.606Z,18.10
2022-09-10T04:47:21.405Z,18.20
2022-09-10T04:49:49.849Z,18.20
2022-09-10T04:52:19.895Z,18.20
2022-09-10T04:54:47.130Z,18.10
2022-09-10T04:58:06.448Z,18.10
2022-09-10T05:00:35.164Z,18.00
2022-09-10T05:03:07.180Z,18.00
2022-09-10T05:05:34.473Z,18.00
2022-09-10T05:08:05.780Z,18.00
2022-09-10T05:10:33.949Z,18.00
2022-09-10T05:13:01.021Z,18.00
2022-09-10T05:15:32.108Z,17.90
2022-09-10T05:17:59.416Z,18.00
2022-09-10T05:20:27.746Z,18.00
2022-09-10T05:22:56.794Z,18.10
2022-09-10T05:25:24.591Z,18.10
2022-09-10T05:27:52.922Z,18.10
2022-09-10T05:30:22.399Z,18.10
2022-09-10T05:32:53.493Z,18.10
2022-09-10T05:35:20.624Z,18.00
2022-09-10T05:37:48.749Z,18.00
2022-09-10T05:40:16.037Z,18.00
2022-09-10T05:42:43.117Z,17.90
2022-09-10T05:45:10.585Z,17.90
2022-09-10T05:47:38.085Z,18.00
2022-09-10T05:50:06.555Z,18.00
2022-09-10T05:52:34.362Z,18.10
2022-09-10T05:55:06.158Z,18.20
2022-09-10T05:57:33.919Z,18.30
2022-09-10T06:00:01.597Z,18.30
2022-09-10T06:02:30.358Z,18.30
2022-09-10T06:05:00.558Z,18.30
2022-09-10T06:07:28.359Z,18.30
2022-09-10T06:09:57.595Z,18.40
2022-09-10T06:12:44.771Z,18.40
2022-09-10T06:15:12.574Z,18.50
2022-09-10T06:17:41.634Z,18.50
2022-09-10T06:20:09.666Z,18.50
2022-09-10T06:22:41.561Z,18.60
2022-09-10T06:25:10.796Z,18.70
2022-09-10T06:27:39.343Z,18.70
2022-09-10T06:30:07.080Z,18.90
2022-09-10T06:36:00.173Z,19.00
2022-09-10T06:38:29.520Z,19.10
2022-09-10T06:41:02.202Z,19.10
2022-09-10T06:43:36.913Z,19.10
2022-09-10T06:46:50.775Z,19.20
2022-09-10T06:49:10.793Z,19.30
2022-09-10T06:51:41.318Z,19.40
2022-09-10T06:54:09.771Z,19.50
2022-09-10T06:56:37.532Z,19.50
2022-09-10T06:59:07.947Z,19.60
2022-09-10T07:01:47.727Z,19.60
2022-09-10T07:04:16.082Z,19.70
2022-09-10T07:06:45.984Z,19.80
2022-09-10T07:09:17.152Z,19.80
2022-09-10T07:12:06.412Z,19.80
2022-09-10T07:14:36.704Z,19.90
2022-09-10T07:17:08.570Z,20.00
2022-09-10T07:19:38.715Z,20.00
2022-09-10T07:22:13.414Z,20.10
2022-09-10T07:24:43.736Z,20.10
2022-09-10T07:27:11.877Z,20.10
2022-09-10T07:29:41.753Z,20.20
2022-09-10T07:32:13.825Z,20.20
2022-09-10T07:34:41.966Z,20.30
2022-09-10T07:39:59.846Z,20.30
2022-09-10T07:42:29.980Z,20.50
2022-09-10T07:44:58.151Z,20.60
2022-09-10T07:47:25.913Z,20.70
2022-09-10T07:49:56.378Z,20.80
2022-09-10T07:52:23.980Z,20.90
2022-09-10T07:55:00.636Z,20.90
2022-09-10T07:57:33.757Z,20.90
2022-09-10T08:00:02.955Z,21.00
2022-09-10T08:02:42.878Z,21.00
2022-09-10T08:05:13.788Z,21.10
2022-09-10T08:07:41.820Z,21.10
2022-09-10T08:10:13.467Z,21.20
2022-09-10T08:12:43.706Z,21.30
2022-09-10T08:15:14.823Z,21.40
2022-09-10T08:17:41.871Z,21.40
2022-09-10T08:20:10.010Z,21.50
2022-09-10T08:22:45.261Z,21.60
2022-09-10T08:25:20.801Z,21.70
2022-09-10T08:27:50.132Z,21.80
2022-09-10T08:30:18.696Z,21.80
2022-09-10T08:32:48.244Z,21.90
2022-09-10T08:35:15.042Z,22.10
2022-09-10T08:37:44.763Z,22.30
2022-09-10T08:40:17.189Z,22.40
2022-09-10T08:42:51.663Z,22.50
2022-09-10T08:45:30.924Z,22.60
2022-09-10T08:48:24.207Z,22.80
2022-09-10T08:50:56.702Z,22.90
2022-09-10T08:56:43.949Z,23.00
2022-09-10T09:02:49.185Z,23.30
2022-09-10T09:11:49.244Z,23.70
2022-09-10T09:14:18.395Z,23.80
2022-09-10T09:16:53.560Z,23.90
2022-09-10T09:19:22.654Z,24.10
2022-09-10T09:21:55.005Z,24.20
2022-09-10T09:24:35.435Z,24.20
2022-09-10T09:27:30.260Z,24.40
2022-09-10T09:30:30.346Z,24.60
2022-09-10T09:33:17.730Z,24.60
2022-09-10T09:35:58.054Z,24.80
2022-09-10T09:38:39.962Z,25.00
2022-09-10T09:41:16.687Z,25.00
2022-09-10T09:43:59.990Z,25.30
2022-09-10T09:46:27.134Z,25.40
2022-09-10T09:49:02.181Z,25.50
2022-09-10T09:51:39.239Z,25.50
2022-09-10T09:54:46.457Z,25.50
2022-09-10T10:00:39.088Z,25.50
2022-09-10T10:06:40.354Z,25.70
2022-09-10T10:09:21.558Z,25.70
2022-09-10T10:11:51.133Z,25.80
2022-09-10T10:14:27.443Z,25.80
2022-09-10T10:17:03.461Z,25.70
2022-09-10T10:19:39.473Z,25.80
2022-09-10T10:22:19.059Z,25.90
2022-09-10T10:24:58.704Z,25.90
2022-09-10T10:30:17.459Z,26.00
2022-09-10T10:32:44.811Z,26.10
2022-09-10T10:35:33.771Z,26.20
2022-09-10T10:38:03.047Z,26.10
2022-09-10T10:43:32.357Z,26.40
2022-09-10T10:46:02.266Z,26.50
2022-09-10T10:48:35.365Z,26.50
2022-09-10T10:51:10.455Z,26.50
2022-09-10T10:53:56.659Z,26.60
2022-09-10T10:56:37.901Z,26.70
2022-09-10T10:59:23.893Z,26.80
2022-09-10T11:01:54.267Z,26.80
2022-09-10T11:04:24.268Z,26.90
2022-09-10T11:07:09.895Z,26.90
2022-09-10T11:09:47.348Z,27.00
2022-09-10T11:12:37.605Z,26.90
2022-09-10T11:15:24.501Z,26.80
2022-09-10T11:18:05.341Z,26.80
2022-09-10T11:20:40.003Z,27.00
2022-09-10T11:23:07.980Z,27.00
2022-09-10T11:25:47.872Z,27.10
2022-09-10T11:28:17.693Z,27.20
2022-09-10T11:30:47.880Z,27.20
2022-09-10T11:33:23.608Z,27.20
2022-09-10T11:36:00.094Z,27.40
2022-09-10T11:38:36.781Z,27.50
2022-09-10T11:41:04.850Z,27.60
2022-09-10T11:43:53.250Z,27.80
2022-09-10T11:46:25.555Z,27.80
2022-09-10T11:48:58.042Z,27.90
2022-09-10T11:51:30.604Z,27.90
2022-09-10T11:53:57.837Z,27.90
2022-09-10T11:56:30.839Z,27.80
2022-09-10T11:59:23.179Z,27.90
2022-09-10T12:02:06.991Z,28.00
2022-09-10T12:04:47.664Z,28.20
2022-09-10T12:07:44.654Z,28.30
2022-09-10T12:10:32.072Z,28.40
2022-09-10T12:13:02.065Z,28.50
2022-09-10T12:15:37.058Z,28.40
2022-09-10T12:18:17.321Z,28.40
2022-09-10T12:20:51.657Z,28.50
2022-09-10T12:27:14.328Z,28.30
2022-09-10T12:29:48.464Z,28.40
2022-09-10T12:35:49.546Z,28.60
2022-09-10T12:38:55.269Z,28.60
2022-09-10T12:41:39.867Z,28.60
2022-09-10T13:00:51.762Z,29.10
2022-09-10T13:04:17.113Z,29.40
2022-09-10T13:13:52.707Z,29.30
2022-09-10T13:19:47.696Z,29.40
2022-09-10T13:48:53.435Z,29.70
2022-09-10T14:13:13.543Z,30.30
2022-09-10T14:15:43.142Z,30.30
2022-09-10T14:18:12.338Z,30.30
2022-09-10T14:20:49.086Z,30.30
2022-09-10T14:23:39.138Z,30.30
2022-09-10T14:26:30.151Z,30.20
2022-09-10T14:29:07.572Z,30.00
2022-09-10T14:31:47.311Z,30.00
2022-09-10T14:34:37.427Z,29.90
2022-09-10T14:37:26.502Z,29.80
2022-09-10T14:39:57.428Z,29.90
2022-09-10T14:42:27.296Z,30.00
2022-09-10T14:44:54.538Z,30.20
2022-09-10T14:47:41.593Z,30.30
2022-09-10T14:50:28.834Z,30.30
2022-09-10T14:52:56.268Z,30.50
2022-09-10T14:55:24.211Z,30.70
2022-09-10T14:57:56.073Z,30.70
2022-09-10T15:00:25.841Z,30.80
2022-09-10T15:03:12.699Z,31.00
2022-09-10T15:05:39.501Z,31.10
2022-09-10T15:14:12.213Z,32.30
2022-09-10T15:16:43.544Z,32.80
2022-09-10T15:19:13.302Z,33.00
2022-09-10T15:21:40.310Z,33.50
2022-09-10T15:24:16.496Z,34.10
2022-09-10T15:26:46.691Z,34.40
2022-09-10T15:29:14.894Z,34.80
2022-09-10T15:32:02.691Z,35.20
2022-09-10T15:34:37.850Z,35.40
2022-09-10T15:37:04.618Z,35.70
2022-09-10T15:39:34.188Z,35.80
2022-09-10T15:42:04.230Z,36.10
2022-09-10T15:47:16.629Z,36.20
2022-09-10T15:49:45.954Z,35.90
2022-09-10T15:52:25.126Z,36.30
2022-09-10T15:54:55.417Z,36.50
2022-09-10T15:57:29.960Z,36.20
2022-09-10T16:00:39.701Z,35.40
2022-09-10T16:03:06.975Z,33.70
2022-09-10T16:05:35.391Z,32.00
2022-09-10T16:08:03.983Z,30.90
2022-09-10T16:10:48.117Z,30.00
2022-09-10T16:16:05.430Z,28.80
2022-09-10T16:18:35.243Z,28.40
2022-09-10T16:21:26.195Z,27.90
2022-09-10T16:24:10.976Z,27.70
2022-09-10T16:27:23.407Z,27.50
2022-09-10T16:29:58.024Z,27.30
2022-09-10T16:32:25.749Z,27.20
2022-09-10T16:34:53.411Z,27.10
2022-09-10T16:37:21.971Z,27.00
2022-09-10T16:40:10.224Z,26.90
2022-09-10T16:42:38.407Z,26.80
2022-09-10T16:48:16.139Z,26.60
2022-09-10T16:50:43.494Z,26.60
2022-09-10T16:53:17.231Z,26.50
2022-09-10T16:55:51.893Z,26.40
2022-09-10T16:58:19.007Z,26.30
2022-09-10T17:01:10.349Z,26.20
2022-09-10T17:03:59.137Z,26.20
2022-09-10T17:06:38.777Z,26.10
2022-09-10T17:09:08.791Z,25.90
2022-09-10T17:11:52.278Z,25.70
2022-09-10T17:17:46.575Z,25.40
2022-09-10T17:23:26.965Z,25.10
2022-09-10T17:28:59.062Z,24.80
2022-09-10T17:59:47.258Z,23.60
2022-09-10T18:09:16.358Z,23.30
2022-09-10T18:12:18.654Z,23.30
2022-09-10T18:15:35.423Z,23.10
2022-09-10T18:21:17.520Z,23.10
2022-09-10T18:30:52.772Z,23.00
2022-09-10T18:33:20.053Z,23.00
2022-09-10T18:42:50.369Z,22.70
2022-09-10T18:46:11.233Z,22.70
2022-09-10T18:52:36.223Z,22.70
2022-09-10T18:55:03.481Z,22.70
2022-09-10T19:06:57.872Z,22.70
2022-09-10T19:09:30.894Z,22.60
2022-09-10T19:11:58.597Z,22.50
2022-09-10T19:14:30.539Z,22.60
2022-09-10T19:16:58.653Z,22.60
2022-09-10T19:19:28.919Z,22.60
2022-09-10T19:21:59.497Z,22.50
2022-09-10T19:24:44.067Z,22.50
2022-09-10T19:27:14.404Z,22.30
2022-09-10T19:29:42.314Z,22.30
2022-09-10T19:32:12.016Z,22.30
2022-09-10T19:34:42.239Z,22.30
2022-09-10T19:37:10.071Z,22.30
2022-09-10T19:39:36.925Z,22.20
2022-09-10T19:42:06.841Z,22.30
2022-09-10T19:44:45.865Z,22.30
2022-09-10T19:47:13.470Z,22.40
2022-09-10T19:49:41.119Z,22.40
2022-09-10T19:52:12.520Z,22.30
2022-09-10T19:54:39.893Z,22.30
2022-09-10T19:57:06.699Z,22.30
2022-09-10T19:59:34.390Z,22.30
2022-09-10T20:02:01.546Z,22.20
2022-09-10T20:04:28.734Z,22.30
2022-09-10T20:06:55.567Z,22.30
2022-09-10T20:09:22.889Z,22.20
2022-09-10T20:11:49.732Z,22.30
2022-09-10T20:14:20.348Z,22.20
2022-09-10T20:16:47.321Z,22.30
2022-09-10T20:19:18.361Z,22.30
2022-09-10T20:21:48.051Z,22.30
2022-09-10T20:24:15.721Z,22.30
2022-09-10T20:26:49.165Z,22.20
2022-09-10T20:29:18.141Z,22.30
2022-09-10T20:31:46.329Z,22.20
2022-09-10T20:34:14.864Z,22.10
2022-09-10T20:36:57.673Z,22.20
2022-09-10T20:39:25.672Z,22.10
2022-09-10T20:41:57.081Z,22.00
2022-09-10T20:44:24.818Z,22.10
2022-09-10T20:46:55.596Z,22.10
2022-09-10T20:49:22.719Z,22.10
2022-09-10T20:51:49.783Z,22.10
2022-09-10T20:54:18.038Z,22.10
2022-09-10T20:56:45.586Z,22.10
2022-09-10T20:59:15.863Z,22.10
2022-09-10T21:01:52.672Z,22.10
2022-09-10T21:04:20.396Z,22.20
2022-09-10T21:06:51.423Z,22.20
2022-09-10T21:09:23.535Z,22.20
2022-09-10T21:11:54.396Z,22.20
2022-09-10T21:14:22.394Z,22.20
2022-09-10T21:16:50.567Z,22.10
2022-09-10T21:19:17.936Z,22.00
2022-09-10T21:21:58.423Z,21.90
2022-09-10T21:25:18.609Z,21.90
2022-09-10T21:27:52.426Z,21.80
2022-09-10T21:30:19.350Z,21.70
2022-09-10T21:32:47.371Z,21.70
2022-09-10T21:35:26.097Z,21.70
2022-09-10T21:38:00.930Z,21.80
2022-09-10T21:40:28.099Z,21.70
2022-09-10T21:42:55.768Z,21.70
2022-09-10T21:45:26.320Z,21.70
2022-09-10T21:47:53.644Z,21.60
2022-09-10T21:50:20.739Z,21.50
2022-09-10T21:52:49.700Z,21.40
2022-09-10T21:55:19.068Z,21.40
2022-09-10T21:58:02.754Z,21.50
2022-09-10T22:00:32.229Z,21.60
2022-09-10T22:03:13.810Z,21.50
2022-09-10T22:05:52.863Z,21.50
2022-09-10T22:08:34.991Z,21.50
2022-09-10T22:11:12.844Z,21.60
2022-09-10T22:13:53.653Z,21.50
2022-09-10T22:16:57.318Z,21.50
2022-09-10T22:19:33.065Z,21.50
2022-09-10T22:22:30.427Z,21.50
2022-09-10T22:35:18.049Z,21.30
2022-09-10T22:38:09.707Z,21.30
2022-09-10T22:41:15.941Z,21.30
2022-09-10T22:47:36.989Z,21.50
2022-09-10T22:50:19.035Z,21.50
2022-09-10T22:52:53.686Z,21.60
2022-09-10T22:55:43.374Z,21.60
2022-09-10T22:59:26.434Z,21.70
2022-09-10T23:05:41.195Z,21.70
2022-09-10T23:10:56.623Z,21.70
2022-09-10T23:13:57.838Z,21.70
2022-09-10T23:17:00.954Z,21.70
2022-09-10T23:29:43.988Z,21.80
2022-09-10T23:32:31.683Z,21.80
2022-09-10T23:35:40.297Z,21.70
2022-09-10T23:38:39.251Z,21.70
2022-09-10T23:44:22.306Z,21.80
2022-09-10T23:47:27.244Z,21.70
2022-09-10T23:50:35.542Z,21.70
2022-09-10T23:59:26.005Z,21.90
